Time;durP1;ratioP1;P1;durP2;ratioP2;P2;SDS_P1;SDS_P2;PMS_P1;PMS_P2;Temp;Humidity;BMP_temperature;BMP_pressure;BME280_temperature;BME280_humidity;BME280_pressure;Samples;Min_cycle;Max_cycle;Signal;HPM_P1;HPM_P2
2021/11/13 00:00:27;;;;;;;9.43;7.25;;;;;;;9.72;58.64;99843.25;5057755;28;20057;-80
2021/11/13 00:02:54;;;;;;;11.02;7.30;;;;;;;9.62;59.03;99849.16;5057696;28;20055;-80
2021/11/13 00:05:22;;;;;;;9.98;7.47;;;;;;;9.66;59.11;99853.72;5057549;28;20068;-80
2021/11/13 00:07:49;;;;;;;10.95;7.40;;;;;;;9.47;59.56;99854.00;5056832;28;20053;-80
2021/11/13 00:10:19;;;;;;;10.82;7.68;;;;;;;9.56;59.33;99851.25;5057348;28;20052;-80
2021/11/13 00:12:49;;;;;;;12.75;7.82;;;;;;;9.45;59.33;99844.31;5057935;28;20060;-80
2021/11/13 00:15:20;;;;;;;11.38;8.02;;;;;;;9.53;59.64;99847.16;5058300;28;20049;-80
2021/11/13 00:17:47;;;;;;;10.70;7.38;;;;;;;9.39;59.58;99853.97;5056546;28;20049;-80
2021/11/13 00:20:16;;;;;;;12.30;8.27;;;;;;;9.61;58.99;99876.09;5053332;28;20049;-80
2021/11/13 00:22:43;;;;;;;10.90;7.90;;;;;;;9.70;58.81;99893.66;5058510;28;20060;-80
2021/11/13 00:25:11;;;;;;;11.65;7.97;;;;;;;9.80;59.25;99900.88;5054882;28;20057;-80
2021/11/13 00:27:40;;;;;;;11.50;7.32;;;;;;;9.76;58.96;99883.19;5058612;28;20053;-80
2021/11/13 00:30:11;;;;;;;10.18;7.72;;;;;;;9.86;58.77;99887.63;5056827;28;20061;-80
2021/11/13 00:32:38;;;;;;;10.18;7.32;;;;;;;9.82;58.36;99881.06;5053779;28;20052;-80
2021/11/13 00:35:07;;;;;;;10.50;8.10;;;;;;;9.81;58.53;99885.03;5058134;28;20045;-80
2021/11/13 00:37:35;;;;;;;11.50;7.90;;;;;;;9.71;58.16;99892.50;5047847;28;20061;-80
2021/11/13 00:40:02;;;;;;;10.55;7.55;;;;;;;9.73;57.71;99884.66;5057164;28;20052;-80
2021/11/13 00:42:29;;;;;;;9.25;6.53;;;;;;;9.59;58.28;99878.41;5055167;28;20049;-80
2021/11/13 00:44:57;;;;;;;11.57;8.18;;;;;;;9.61;57.65;99878.88;5056859;28;20049;-80
2021/11/13 00:47:25;;;;;;;11.38;7.65;;;;;;;9.46;58.63;99874.59;5057792;28;20068;-80
2021/11/13 00:49:53;;;;;;;10.43;7.72;;;;;;;9.54;57.76;99886.91;5056778;28;20053;-80
2021/11/13 00:52:20;;;;;;;10.60;7.47;;;;;;;9.52;57.89;99878.88;5058461;28;20056;-80
2021/11/13 00:54:47;;;;;;;11.82;7.97;;;;;;;9.47;58.00;99872.63;5057102;28;20060;-80
2021/11/13 00:57:15;;;;;;;9.77;7.55;;;;;;;9.25;58.22;99873.53;5057695;28;20056;-80
2021/11/13 00:59:44;;;;;;;9.23;7.25;;;;;;;9.19;59.05;99864.50;5058060;28;20037;-81
2021/11/13 01:02:12;;;;;;;9.82;7.45;;;;;;;9.22;58.88;99863.88;5058424;28;20053;-81
2021/11/13 01:04:40;;;;;;;10.15;6.95;;;;;;;9.20;58.80;99868.94;5058177;28;20053;-81
2021/11/13 01:07:08;;;;;;;12.90;8.32;;;;;;;9.13;59.39;99877.75;5057416;28;20049;-81
2021/11/13 01:09:35;;;;;;;11.05;7.65;;;;;;;9.16;59.20;99870.72;5057217;28;20049;-81
2021/11/13 01:12:03;;;;;;;10.75;7.13;;;;;;;9.10;59.14;99869.22;5057685;28;20045;-81
2021/11/13 01:14:32;;;;;;;10.18;7.40;;;;;;;8.97;59.47;99861.81;5058469;28;20057;-81
2021/11/13 01:17:00;;;;;;;11.38;8.07;;;;;;;8.84;59.99;99858.78;5058614;28;20513;-80
2021/11/13 01:19:27;;;;;;;9.45;7.20;;;;;;;9.01;59.69;99863.63;5057702;28;20053;-80
2021/11/13 01:21:56;;;;;;;11.05;7.20;;;;;;;8.91;59.83;99864.72;5058438;28;20049;-81
2021/11/13 01:24:23;;;;;;;9.25;7.03;;;;;;;8.81;60.56;99848.31;5058001;28;20052;-80
2021/11/13 01:26:50;;;;;;;10.80;7.63;;;;;;;8.84;60.45;99849.63;5058814;28;20383;-81
2021/11/13 01:29:18;;;;;;;10.02;7.20;;;;;;;8.99;60.67;99840.91;5057646;28;20053;-81
2021/11/13 01:31:45;;;;;;;10.10;7.53;;;;;;;8.83;61.31;99854.38;5057503;28;20057;-81
2021/11/13 01:34:13;;;;;;;12.18;7.68;;;;;;;8.97;60.76;99842.38;5057689;28;20493;-81
2021/11/13 01:36:40;;;;;;;10.93;7.50;;;;;;;8.97;60.78;99840.41;5057771;28;20068;-81
2021/11/13 01:39:09;;;;;;;10.80;7.68;;;;;;;8.79;61.46;99841.44;5057786;28;20051;-81
2021/11/13 01:41:36;;;;;;;10.10;7.53;;;;;;;8.97;60.70;99829.28;5058065;28;20052;-81
2021/11/13 01:44:06;;;;;;;10.40;6.80;;;;;;;8.93;60.78;99822.72;5057729;28;20053;-80
2021/11/13 01:46:36;;;;;;;10.90;7.00;;;;;;;8.87;60.99;99824.81;5057746;28;20067;-81
2021/11/13 01:49:04;;;;;;;9.10;6.63;;;;;;;8.82;61.59;99827.75;5056540;28;20057;-81
2021/11/13 01:51:34;;;;;;;9.95;7.50;;;;;;;8.93;61.15;99812.44;5057773;28;20405;-81
2021/11/13 01:54:06;;;;;;;11.00;7.80;;;;;;;9.04;60.76;99814.94;5058196;28;20525;-80
2021/11/13 01:56:37;;;;;;;8.88;5.88;;;;;;;8.92;61.33;99816.38;5054805;28;20052;-80
2021/11/13 01:59:06;;;;;;;11.60;7.82;;;;;;;8.82;62.07;99794.44;5057053;28;20049;-80
2021/11/13 02:01:35;;;;;;;11.50;7.37;;;;;;;8.90;62.21;99795.59;5050880;28;20052;-81
2021/11/13 02:04:02;;;;;;;11.57;7.75;;;;;;;8.85;61.81;99788.22;5047132;28;20483;-80
2021/11/13 02:06:31;;;;;;;9.50;7.32;;;;;;;8.68;63.01;99783.41;5056643;28;20052;-80
2021/11/13 02:08:59;;;;;;;11.77;8.02;;;;;;;8.79;62.66;99786.72;5056511;28;20071;-81
2021/11/13 02:11:28;;;;;;;10.07;7.10;;;;;;;8.70;62.83;99789.47;5055798;28;20056;-81
2021/11/13 02:13:57;;;;;;;11.63;7.80;;;;;;;8.79;62.74;99783.13;5055958;28;20053;-80
2021/11/13 02:16:24;;;;;;;12.85;7.90;;;;;;;8.67;63.93;99767.06;5056434;28;20053;-80
2021/11/13 02:18:52;;;;;;;13.10;7.28;;;;;;;8.65;63.92;99778.50;5056536;28;20084;-80
2021/11/13 02:21:22;;;;;;;10.88;7.93;;;;;;;8.66;64.29;99766.25;5057492;28;20053;-81
2021/11/13 02:23:50;;;;;;;11.55;7.80;;;;;;;8.68;64.03;99763.16;5057224;28;20051;-80
2021/11/13 02:26:17;;;;;;;10.30;6.82;;;;;;;8.61;64.49;99771.94;5056872;28;20064;-80
2021/11/13 02:28:45;;;;;;;14.48;7.57;;;;;;;8.60;64.96;99770.28;5055819;28;20057;-81
2021/11/13 02:31:14;;;;;;;12.50;7.97;;;;;;;8.68;65.05;99752.06;5056218;28;20049;-80
2021/11/13 02:33:41;;;;;;;11.82;7.78;;;;;;;8.64;65.39;99753.81;5056083;28;20049;-80
2021/11/13 02:36:11;;;;;;;12.07;7.75;;;;;;;8.85;64.42;99749.34;5056723;28;20049;-80
2021/11/13 02:38:43;;;;;;;11.10;7.75;;;;;;;8.86;64.73;99748.22;5056126;28;20072;-81
2021/11/13 02:41:14;;;;;;;14.75;8.77;;;;;;;8.96;64.37;99746.28;5056301;28;20056;-81
2021/11/13 02:43:41;;;;;;;12.43;8.18;;;;;;;8.90;64.78;99740.88;5055981;28;20417;-81
2021/11/13 02:46:10;;;;;;;13.32;7.60;;;;;;;8.90;64.48;99734.47;5056070;28;20497;-80
2021/11/13 02:48:40;;;;;;;11.90;7.40;;;;;;;8.76;65.42;99737.38;5055541;28;20064;-80
2021/11/13 02:51:09;;;;;;;16.05;9.75;;;;;;;8.76;66.53;99737.38;5055143;28;20052;-80
2021/11/13 02:53:37;;;;;;;13.07;8.70;;;;;;;8.87;66.72;99724.84;5054564;28;20493;-80
2021/11/13 02:56:08;;;;;;;14.85;8.68;;;;;;;9.06;65.91;99726.53;5055398;28;20056;-80
2021/11/13 02:58:37;;;;;;;11.93;8.90;;;;;;;9.05;66.91;99719.34;5055727;28;20056;-80
2021/11/13 03:01:08;;;;;;;12.40;8.32;;;;;;;9.03;66.91;99721.63;5055453;28;20056;-80
2021/11/13 03:03:35;;;;;;;10.93;7.72;;;;;;;9.19;65.97;99725.59;5055628;28;20090;-81
2021/11/13 03:06:03;;;;;;;13.90;8.30;;;;;;;9.08;67.09;99719.50;5055196;28;20063;-81
2021/11/13 03:08:32;;;;;;;11.57;7.75;;;;;;;9.13;65.87;99721.31;5055560;28;20075;-80
2021/11/13 03:11:03;;;;;;;12.52;8.27;;;;;;;9.22;65.86;99724.94;5056069;28;20421;-81
2021/11/13 03:13:33;;;;;;;15.20;8.77;;;;;;;9.26;65.58;99733.44;5055322;28;20049;-81
2021/11/13 03:16:02;;;;;;;12.45;8.05;;;;;;;9.20;65.06;99724.47;5055446;28;20059;-80
2021/11/13 03:18:30;;;;;;;13.52;9.00;;;;;;;9.08;65.59;99724.25;5054653;28;20513;-80
2021/11/13 03:20:58;;;;;;;9.95;7.25;;;;;;;9.27;65.04;99735.09;5054470;28;20057;-80
2021/11/13 03:23:26;;;;;;;12.27;7.90;;;;;;;9.24;64.84;99739.34;5057826;28;20060;-80
2021/11/13 03:25:56;;;;;;;11.43;8.43;;;;;;;9.26;64.31;99733.44;5058842;28;20053;-80
2021/11/13 03:28:25;;;;;;;14.63;8.70;;;;;;;9.15;64.98;99730.16;5058603;28;20056;-81
2021/11/13 03:30:54;;;;;;;10.93;7.53;;;;;;;9.29;64.30;99730.03;5056537;28;20052;-81
2021/11/13 03:33:22;;;;;;;12.80;8.63;;;;;;;9.38;64.07;99749.50;5059260;28;20048;-81
2021/11/13 03:35:49;;;;;;;15.05;8.60;;;;;;;9.40;63.87;99738.88;5059038;28;20061;-81
2021/11/13 03:38:18;;;;;;;13.35;7.75;;;;;;;9.41;64.18;99740.50;5058799;28;20512;-81
2021/11/13 03:40:48;;;;;;;16.30;8.30;;;;;;;9.34;64.79;99740.97;5057962;28;20461;-81
2021/11/13 03:43:16;;;;;;;12.07;8.20;;;;;;;9.29;64.90;99741.94;5057460;28;20049;-81
2021/11/13 03:45:45;;;;;;;12.20;7.78;;;;;;;9.42;64.90;99736.59;5059863;28;20474;-81
2021/11/13 03:48:14;;;;;;;13.73;8.45;;;;;;;9.43;65.07;99746.53;5059147;28;20509;-80
2021/11/13 03:50:42;;;;;;;12.63;8.48;;;;;;;9.36;64.54;99752.59;5059411;28;20059;-80
2021/11/13 03:53:10;;;;;;;13.23;8.52;;;;;;;9.46;64.59;99746.72;5054402;28;20075;-80
2021/11/13 03:55:37;;;;;;;14.55;8.73;;;;;;;9.75;64.38;99753.63;5058194;28;20401;-80
2021/11/13 03:58:05;;;;;;;15.80;9.43;;;;;;;9.67;64.63;99751.66;5057235;28;20055;-80
2021/11/13 04:00:33;;;;;;;13.68;8.15;;;;;;;9.50;65.26;99752.47;5057039;28;20052;-81
2021/11/13 04:03:01;;;;;;;13.65;8.95;;;;;;;9.59;65.44;99760.81;5056743;28;20049;-80
2021/11/13 04:05:30;;;;;;;13.98;8.88;;;;;;;9.51;66.26;99759.63;5056719;28;20049;-80
2021/11/13 04:07:57;;;;;;;18.40;9.20;;;;;;;9.42;67.09;99756.03;5056661;28;20053;-80
2021/11/13 04:10:25;;;;;;;15.43;9.18;;;;;;;9.45;67.66;99749.81;5056386;28;20063;-80
2021/11/13 04:12:53;;;;;;;17.80;9.82;;;;;;;9.58;67.62;99743.31;5056084;28;20056;-80
2021/11/13 04:15:21;;;;;;;14.60;9.10;;;;;;;9.26;69.08;99744.56;5056150;28;20393;-80
2021/11/13 04:17:54;;;;;;;16.55;10.25;;;;;;;9.39;69.40;99746.41;5056907;28;20053;-80
2021/11/13 04:20:24;;;;;;;20.83;10.65;;;;;;;9.13;70.95;99733.28;5056737;28;20049;-80
2021/11/13 04:22:53;;;;;;;15.52;9.73;;;;;;;9.21;70.91;99741.94;5056605;28;20053;-80
2021/11/13 04:25:24;;;;;;;21.40;11.90;;;;;;;9.16;71.38;99737.34;5056079;28;20417;-80
2021/11/13 04:27:52;;;;;;;16.73;11.50;;;;;;;9.24;71.29;99736.56;5055870;28;20052;-80
2021/11/13 04:30:20;;;;;;;15.40;9.90;;;;;;;9.14;71.92;99736.84;5056341;28;20056;-80
2021/11/13 04:32:50;;;;;;;15.43;9.85;;;;;;;9.13;72.75;99726.88;5055734;28;20060;-80
2021/11/13 04:35:21;;;;;;;17.25;10.93;;;;;;;9.09;72.87;99731.44;5055068;28;20049;-80
2021/11/13 04:37:56;;;;;;;16.23;10.15;;;;;;;9.10;72.71;99733.09;5055846;28;20057;-80
2021/11/13 04:40:26;;;;;;;18.02;10.43;;;;;;;9.09;72.84;99737.84;5055987;28;20049;-80
2021/11/13 04:42:53;;;;;;;;;;;;;;;9.23;72.11;99743.25;5056079;28;20049;-80
2021/11/13 04:45:20;;;;;;;17.40;9.32;;;;;;;9.04;73.28;99734.38;5055740;28;19921;-80
2021/11/13 04:47:48;;;;;;;16.27;10.55;;;;;;;9.13;73.32;99732.44;5055879;28;20417;-80
2021/11/13 04:50:17;;;;;;;19.23;11.52;;;;;;;9.19;73.25;99733.09;5055678;28;20049;-80
2021/11/13 04:52:45;;;;;;;14.73;9.95;;;;;;;9.17;72.65;99722.31;5055386;28;20059;-80
2021/11/13 04:55:15;;;;;;;14.60;10.25;;;;;;;9.06;73.42;99732.09;5055204;28;20049;-80
2021/11/13 04:57:43;;;;;;;16.92;10.18;;;;;;;8.93;72.96;99725.53;5054799;28;20064;-80
2021/11/13 05:00:13;;;;;;;14.77;10.23;;;;;;;8.97;74.10;99720.16;5055516;28;20060;-79
2021/11/13 05:02:41;;;;;;;16.00;10.32;;;;;;;9.02;73.75;99725.53;5055204;28;20069;-80
2021/11/13 05:05:09;;;;;;;16.67;10.25;;;;;;;8.96;74.07;99721.28;5055038;28;20053;-80
2021/11/13 05:07:36;;;;;;;18.95;11.38;;;;;;;9.05;73.32;99730.44;5055301;28;20482;-80
2021/11/13 05:10:05;;;;;;;16.58;11.52;;;;;;;9.18;73.63;99723.97;5054125;28;20425;-80
2021/11/13 05:12:34;;;;;;;16.40;10.90;;;;;;;9.25;73.52;99729.84;5054846;28;20060;-80
2021/11/13 05:15:01;;;;;;;14.70;10.03;;;;;;;9.28;73.17;99739.50;5054930;28;20056;-80
2021/11/13 05:17:29;;;;;;;17.27;10.82;;;;;;;9.26;73.77;99742.63;5054679;28;20049;-80
2021/11/13 05:19:56;;;;;;;16.98;10.95;;;;;;;9.26;74.42;99739.84;5054490;28;20057;-79
2021/11/13 05:22:23;;;;;;;18.50;11.70;;;;;;;9.14;74.87;99734.88;5055174;28;20056;-79
2021/11/13 05:24:50;;;;;;;17.75;11.50;;;;;;;9.10;75.44;99744.19;5054778;28;20060;-80
2021/11/13 05:27:18;;;;;;;18.33;11.38;;;;;;;9.26;74.67;99737.06;5054251;28;20064;-79
2021/11/13 05:29:47;;;;;;;18.85;11.95;;;;;;;9.26;74.91;99737.06;5054239;28;20044;-80
2021/11/13 05:32:14;;;;;;;20.73;12.77;;;;;;;9.38;74.26;99743.94;5054646;28;20053;-80
2021/11/13 05:34:42;;;;;;;17.63;11.80;;;;;;;9.48;74.22;99746.41;5055089;28;20044;-80
2021/11/13 05:37:09;;;;;;;17.33;11.80;;;;;;;9.43;74.31;99743.75;5054767;28;20417;-80
2021/11/13 05:39:37;;;;;;;16.73;10.77;;;;;;;9.46;74.03;99746.72;5053784;28;20060;-80
2021/11/13 05:42:05;;;;;;;16.63;10.70;;;;;;;9.44;73.70;99750.97;5053825;28;20044;-80
2021/11/13 05:44:33;;;;;;;14.43;9.73;;;;;;;9.26;73.68;99753.72;5054060;28;20060;-80
2021/11/13 05:47:02;;;;;;;15.13;9.57;;;;;;;9.08;74.48;99749.25;5053599;28;20056;-80
2021/11/13 05:49:29;;;;;;;17.20;10.23;;;;;;;9.08;74.58;99746.47;5054285;28;20075;-80
2021/11/13 05:51:57;;;;;;;14.55;9.55;;;;;;;9.09;74.38;99748.09;5046748;28;20518;-80
2021/11/13 05:54:24;;;;;;;14.18;9.52;;;;;;;9.17;74.06;99741.75;5033952;28;20049;-79
2021/11/13 05:56:52;;;;;;;12.40;8.80;;;;;;;9.24;73.86;99761.56;5045858;28;20489;-80
2021/11/13 05:59:19;;;;;;;13.60;8.98;;;;;;;9.17;73.65;99747.31;5053744;28;20071;-80
2021/11/13 06:01:46;;;;;;;12.88;8.82;;;;;;;9.35;73.34;99757.34;5054576;28;20040;-79
2021/11/13 06:04:15;;;;;;;12.93;8.75;;;;;;;9.41;73.80;99754.38;5053922;28;20045;-80
2021/11/13 06:06:42;;;;;;;10.73;7.70;;;;;;;9.37;73.89;99759.00;5053525;28;20052;-80
2021/11/13 06:09:10;;;;;;;12.18;7.70;;;;;;;9.33;73.85;99758.81;5053654;28;20068;-80
2021/11/13 06:11:37;;;;;;;9.63;6.88;;;;;;;9.34;73.47;99763.22;5053700;28;20405;-80
2021/11/13 06:14:05;;;;;;;10.43;7.22;;;;;;;9.41;73.25;99760.78;5053947;28;20048;-80
2021/11/13 06:16:32;;;;;;;11.88;7.63;;;;;;;9.53;73.29;99762.91;5053627;28;20056;-80
2021/11/13 06:18:59;;;;;;;9.15;6.63;;;;;;;9.61;72.39;99764.09;5056850;28;20044;-80
2021/11/13 06:21:28;;;;;;;10.38;7.35;;;;;;;9.31;73.68;99772.22;5055127;28;20060;-80
2021/11/13 06:23:55;;;;;;;9.75;7.28;;;;;;;9.45;73.09;99761.78;5053731;28;20056;-80
2021/11/13 06:26:23;;;;;;;8.82;6.93;;;;;;;9.25;73.20;99773.50;5053888;28;20508;-80
2021/11/13 06:28:50;;;;;;;8.55;6.75;;;;;;;9.37;73.01;99767.31;5054213;28;20041;-80
2021/11/13 06:31:18;;;;;;;8.85;6.22;;;;;;;9.44;72.12;99776.00;5054361;28;20060;-80
2021/11/13 06:33:45;;;;;;;6.95;5.30;;;;;;;9.39;71.64;99770.59;5053494;28;20516;-80
2021/11/13 06:36:12;;;;;;;9.80;6.15;;;;;;;9.38;72.71;99771.72;5053378;28;20402;-80
2021/11/13 06:38:41;;;;;;;7.57;6.00;;;;;;;9.47;71.71;99772.56;5053409;28;20053;-80
2021/11/13 06:41:08;;;;;;;6.53;4.90;;;;;;;9.46;71.48;99776.50;5053664;28;20067;-80
2021/11/13 06:43:36;;;;;;;6.78;5.70;;;;;;;9.38;72.03;99780.06;5052558;28;20064;-80
2021/11/13 06:46:03;;;;;;;7.00;5.38;;;;;;;9.19;72.48;99778.38;5053497;28;20041;-80
2021/11/13 06:48:30;;;;;;;5.95;4.80;;;;;;;9.28;71.86;99781.19;5053192;28;20059;-80
2021/11/13 06:50:58;;;;;;;8.05;4.78;;;;;;;9.46;71.48;99773.72;5053692;28;20048;-80
2021/11/13 06:53:25;;;;;;;6.30;4.38;;;;;;;9.43;71.80;99783.53;5052896;28;20049;-80
2021/11/13 06:55:54;;;;;;;6.55;5.00;;;;;;;9.49;71.41;99778.59;5053137;28;20056;-80
2021/11/13 06:58:22;;;;;;;6.10;4.50;;;;;;;9.67;70.87;99790.59;5041521;28;20053;-79
2021/11/13 07:00:49;;;;;;;5.05;3.97;;;;;;;9.57;70.88;99788.13;5057292;28;21019;-80
2021/11/13 07:03:16;;;;;;;5.18;4.10;;;;;;;9.62;71.24;99793.53;5057432;28;20059;-80
2021/11/13 07:05:44;;;;;;;5.30;3.80;;;;;;;9.59;71.25;99789.41;5056764;28;20504;-80
2021/11/13 07:08:11;;;;;;;4.68;3.80;;;;;;;9.77;71.11;99806.16;5056655;28;20060;-80
2021/11/13 07:10:39;;;;;;;6.28;3.72;;;;;;;9.81;70.59;99807.13;5056744;28;20064;-80
2021/11/13 07:13:07;;;;;;;5.35;4.03;;;;;;;9.79;70.59;99815.00;5057108;28;20048;-80
2021/11/13 07:15:35;;;;;;;4.40;3.38;;;;;;;9.70;70.42;99810.22;5057165;28;20474;-80
2021/11/13 07:18:04;;;;;;;4.60;3.53;;;;;;;9.74;70.07;99814.00;5056818;28;20053;-80
2021/11/13 07:20:33;;;;;;;4.32;3.28;;;;;;;9.77;70.68;99812.53;5037486;28;20426;-80
2021/11/13 07:23:00;;;;;;;3.88;3.20;;;;;;;9.71;70.70;99820.19;5051923;28;20056;-81
2021/11/13 07:25:27;;;;;;;6.10;4.05;;;;;;;9.86;70.80;99821.69;5057411;28;20068;-81
2021/11/13 07:28:00;;;;;;;5.47;3.40;;;;;;;9.90;70.49;99833.00;5058772;28;20055;-81
2021/11/13 07:30:37;;;;;;;4.20;3.22;;;;;;;9.70;71.21;99828.84;5056892;28;20060;-79
2021/11/13 07:33:07;;;;;;;5.60;3.90;;;;;;;9.89;70.13;99823.00;5057993;28;20060;-79
2021/11/13 07:35:37;;;;;;;7.22;4.25;;;;;;;9.91;69.93;99821.53;5057070;28;20053;-79
2021/11/13 07:38:07;;;;;;;4.80;4.03;;;;;;;10.05;69.61;99824.16;5057055;28;20056;-80
2021/11/13 07:40:35;;;;;;;5.05;3.90;;;;;;;10.07;69.47;99832.19;5056718;28;20072;-79
2021/11/13 07:43:02;;;;;;;5.35;3.90;;;;;;;10.04;69.28;99833.66;5056528;28;20053;-79
2021/11/13 07:45:32;;;;;;;5.10;4.13;;;;;;;10.04;69.33;99821.72;5051903;28;20045;-79
2021/11/13 07:48:00;;;;;;;;;;;;;;;9.99;69.64;99841.34;5045732;28;20037;-79
2021/11/13 07:50:27;;;;;;;5.70;4.07;;;;;;;9.88;70.29;99835.28;5056793;28;19921;-79
2021/11/13 07:52:54;;;;;;;4.80;3.80;;;;;;;9.91;70.08;99829.88;5040654;28;20064;-80
2021/11/13 07:55:22;;;;;;;4.53;3.50;;;;;;;9.69;71.37;99827.22;5049085;28;20413;-79
2021/11/13 07:57:49;;;;;;;5.35;4.07;;;;;;;9.71;71.00;99831.31;5055345;28;20448;-79
2021/11/13 08:00:20;;;;;;;6.70;4.20;;;;;;;9.58;71.60;99832.28;5057268;28;20052;-79
2021/11/13 08:02:49;;;;;;;4.78;3.65;;;;;;;9.60;71.55;99835.56;5056974;28;20049;-80
2021/11/13 08:05:17;;;;;;;5.82;4.10;;;;;;;9.70;71.78;99829.69;5058986;28;20055;-79
2021/11/13 08:07:46;;;;;;;4.65;3.85;;;;;;;9.64;71.97;99844.91;5057107;28;20516;-80
2021/11/13 08:10:15;;;;;;;5.05;4.18;;;;;;;9.86;71.14;99851.47;5054753;28;20175;-79
2021/11/13 08:12:43;;;;;;;6.05;4.80;;;;;;;9.84;71.50;99842.63;5053911;28;20045;-79
2021/11/13 08:15:11;;;;;;;5.95;4.57;;;;;;;9.89;71.90;99848.88;5052580;28;20071;-79
2021/11/13 08:17:41;;;;;;;6.13;4.40;;;;;;;10.00;71.10;99851.34;5056230;28;20052;-79
2021/11/13 08:20:11;;;;;;;5.38;4.13;;;;;;;9.81;72.03;99852.44;5056985;28;20051;-79
2021/11/13 08:22:39;;;;;;;5.68;4.50;;;;;;;10.06;70.97;99853.63;5042668;28;20053;-79
2021/11/13 08:25:09;;;;;;;5.00;4.10;;;;;;;9.93;71.70;99846.22;5055827;28;20045;-79
2021/11/13 08:27:37;;;;;;;4.68;3.90;;;;;;;10.02;71.09;99849.84;5054565;28;20508;-79
2021/11/13 08:30:05;;;;;;;6.97;4.07;;;;;;;10.11;70.66;99850.69;5054891;28;20049;-79
2021/11/13 08:32:32;;;;;;;5.25;4.47;;;;;;;10.06;70.74;99848.06;5058634;28;20044;-79
2021/11/13 08:35:00;;;;;;;5.05;4.00;;;;;;;9.92;71.05;99852.97;5065931;28;20501;-79
2021/11/13 08:37:29;;;;;;;5.25;3.97;;;;;;;9.96;71.52;99849.19;5055035;28;20053;-79
2021/11/13 08:39:57;;;;;;;5.03;3.60;;;;;;;9.71;72.50;99852.75;5054509;28;20052;-79
2021/11/13 08:42:24;;;;;;;5.28;4.03;;;;;;;9.93;71.19;99851.78;5055143;28;20053;-79
2021/11/13 08:44:52;;;;;;;5.03;4.30;;;;;;;9.88;71.84;99858.34;5055678;28;20060;-79
2021/11/13 08:47:20;;;;;;;6.22;4.22;;;;;;;9.95;71.65;99857.84;5051823;28;20049;-79
2021/11/13 08:49:48;;;;;;;4.57;3.20;;;;;;;10.02;71.43;99852.63;5056236;28;20049;-79
2021/11/13 08:52:18;;;;;;;4.32;3.33;;;;;;;10.00;70.95;99848.56;5043824;28;20060;-79
2021/11/13 08:54:49;;;;;;;4.65;3.47;;;;;;;10.12;70.89;99845.91;5048629;28;20436;-79
2021/11/13 08:57:17;;;;;;;3.85;3.15;;;;;;;9.92;71.43;99847.41;5057306;28;20072;-79
2021/11/13 08:59:45;;;;;;;4.18;3.20;;;;;;;9.89;72.10;99848.03;5055164;28;20056;-80
2021/11/13 09:02:16;;;;;;;4.35;3.10;;;;;;;10.02;71.40;99846.28;5051174;28;20677;-79
2021/11/13 09:04:46;;;;;;;4.15;3.13;;;;;;;10.11;70.73;99845.09;5050066;28;20477;-79
2021/11/13 09:07:14;;;;;;;4.13;3.00;;;;;;;10.10;71.37;99853.78;5050763;28;20067;-78
2021/11/13 09:09:42;;;;;;;4.55;3.55;;;;;;;10.25;71.42;99858.06;5051456;28;20053;-84
2021/11/13 09:12:14;;;;;;;6.18;4.03;;;;;;;10.20;71.39;99849.84;5052651;28;20099;-82
2021/11/13 09:14:41;;;;;;;3.60;3.00;;;;;;;10.29;71.11;99854.31;5054365;28;20080;-82
2021/11/13 09:17:09;;;;;;;4.03;3.08;;;;;;;10.35;70.82;99854.97;5051753;28;20498;-80
2021/11/13 09:19:36;;;;;;;4.90;3.15;;;;;;;10.38;71.08;99857.09;5052996;28;20049;-80
2021/11/13 09:22:04;;;;;;;4.70;3.17;;;;;;;10.41;70.99;99862.00;5045914;28;20041;-80
2021/11/13 09:24:32;;;;;;;4.38;3.28;;;;;;;10.51;70.81;99869.22;5050877;28;20053;-80
2021/11/13 09:27:00;;;;;;;3.63;3.00;;;;;;;10.59;70.67;99870.34;5051534;28;20048;-80
2021/11/13 09:29:28;;;;;;;4.18;2.95;;;;;;;10.55;70.52;99861.84;5051747;28;20045;-80
2021/11/13 09:31:56;;;;;;;3.70;2.80;;;;;;;10.54;70.18;99876.88;5053619;28;20072;-80
2021/11/13 09:34:23;;;;;;;4.07;3.13;;;;;;;10.82;69.73;99869.00;5053102;28;20056;-82
2021/11/13 09:36:51;;;;;;;3.65;3.03;;;;;;;10.85;69.61;99882.25;5051547;28;20045;-81
2021/11/13 09:39:19;;;;;;;3.60;2.80;;;;;;;10.89;69.68;99874.88;5052133;28;20064;-80
2021/11/13 09:41:48;;;;;;;4.35;2.67;;;;;;;10.90;70.07;99881.28;5050067;28;20053;-80
2021/11/13 09:44:18;;;;;;;4.50;3.03;;;;;;;10.84;69.15;99889.00;5051685;28;20045;-79
2021/11/13 09:46:48;;;;;;;3.70;2.50;;;;;;;10.91;69.30;99892.06;5051011;28;20053;-80
2021/11/13 09:49:16;;;;;;;;;;;;;;;10.87;69.05;99893.88;5050884;28;20056;-80
2021/11/13 09:51:47;;;;;;;3.60;2.40;;;;;;;10.71;69.61;99884.44;5051179;28;19955;-80
2021/11/13 09:54:14;;;;;;;2.38;2.00;;;;;;;10.77;69.37;99888.66;5051166;28;20052;-80
2021/11/13 09:56:42;;;;;;;2.90;2.13;;;;;;;10.61;69.49;99884.78;5050200;28;20048;-80
2021/11/13 09:59:09;;;;;;;3.22;2.47;;;;;;;10.74;68.94;99892.94;5049922;28;20048;-79
2021/11/13 10:01:36;;;;;;;3.05;2.40;;;;;;;10.40;69.97;99895.75;5052194;28;20409;-80
2021/11/13 10:04:06;;;;;;;3.15;2.05;;;;;;;10.34;70.21;99889.53;5050219;28;20052;-80
2021/11/13 10:06:34;;;;;;;2.72;2.13;;;;;;;10.58;70.00;99883.44;5049625;28;20497;-85
2021/11/13 10:09:01;;;;;;;3.67;2.10;;;;;;;10.67;69.78;99889.03;5053353;28;20528;-84
2021/11/13 10:11:29;;;;;;;3.17;2.10;;;;;;;10.59;70.41;99889.84;5051088;28;20068;-81
2021/11/13 10:13:57;;;;;;;3.45;2.30;;;;;;;10.65;70.87;99892.13;5249549;22;20041;-81
2021/11/13 10:16:31;;;;;;;3.55;2.72;;;;;;;10.31;71.34;99885.44;5049064;28;20053;-81
2021/11/13 10:19:07;;;;;;;2.70;2.33;;;;;;;10.65;70.98;99885.75;5046953;28;20480;-81
2021/11/13 10:21:37;;;;;;;2.97;2.20;;;;;;;10.85;70.31;99884.22;5048090;28;20416;-81
2021/11/13 10:24:12;;;;;;;3.22;2.45;;;;;;;10.91;70.18;99889.28;5051767;28;20048;-80
2021/11/13 10:26:59;;;;;;;3.70;2.50;;;;;;;11.08;69.75;99885.66;5051316;28;20053;-83
2021/11/13 10:29:29;;;;;;;3.00;2.22;;;;;;;11.27;69.18;99879.69;5052807;28;20045;-82
2021/11/13 10:31:57;;;;;;;;;;;;;;;11.15;68.53;99890.72;5051010;28;20062;-81
2021/11/13 10:34:31;;;;;;;3.33;2.55;;;;;;;11.20;68.26;99873.81;5052214;28;19920;-80
2021/11/13 10:37:00;;;;;;;2.78;1.80;;;;;;;11.41;67.64;99879.47;5045415;28;20045;-81
2021/11/13 10:39:30;;;;;;;2.45;2.00;;;;;;;11.41;66.87;99873.91;5051278;28;20060;-81
2021/11/13 10:41:59;;;;;;;;;;;;;;;11.40;67.36;99885.38;5051723;28;20056;-81
2021/11/13 10:44:30;;;;;;;3.70;1.98;;;;;;;11.33;67.60;99875.56;5052658;28;19920;-81
2021/11/13 10:46:59;;;;;;;2.83;2.00;;;;;;;11.55;66.55;99871.69;5052629;28;20056;-83
2021/11/13 10:49:28;;;;;;;2.72;1.92;;;;;;;11.57;66.53;99872.19;5053987;28;20071;-82
2021/11/13 10:51:59;;;;;;;3.15;1.98;;;;;;;11.80;65.41;99863.53;5051449;28;20048;-83
2021/11/13 10:54:31;;;;;;;2.30;1.80;;;;;;;12.05;65.24;99874.88;5050838;28;20044;-82
2021/11/13 10:57:00;;;;;;;2.78;2.10;;;;;;;12.17;64.67;99878.56;5046847;28;20050;-84
2021/11/13 10:59:29;;;;;;;2.30;1.67;;;;;;;12.60;63.38;99868.19;5049493;28;20044;-81
2021/11/13 11:01:59;;;;;;;2.55;1.80;;;;;;;12.83;62.57;99865.84;5040647;28;20512;-81
2021/11/13 11:04:30;;;;;;;6.28;2.50;;;;;;;12.90;62.08;99873.66;5051657;28;20053;-80
2021/11/13 11:07:04;;;;;;;2.92;2.28;;;;;;;12.71;62.20;99869.41;5050175;28;20088;-81
2021/11/13 11:09:35;;;;;;;2.80;2.17;;;;;;;12.71;62.82;99863.81;5047390;28;20071;-81
2021/11/13 11:12:06;;;;;;;4.03;2.78;;;;;;;12.65;62.65;99870.78;5051024;28;20049;-80
2021/11/13 11:14:34;;;;;;;2.75;2.17;;;;;;;12.71;62.48;99869.41;5050876;28;20064;-80
2021/11/13 11:17:04;;;;;;;2.58;2.20;;;;;;;12.93;62.64;99875.75;5051658;28;20496;-81
2021/11/13 11:19:35;;;;;;;3.70;2.58;;;;;;;13.01;62.30;99869.25;5051017;28;20060;-81
2021/11/13 11:22:07;;;;;;;2.90;2.40;;;;;;;13.14;62.11;99870.91;5049750;28;20049;-79
2021/11/13 11:24:40;;;;;;;4.45;2.80;;;;;;;13.13;61.91;99874.88;5036336;28;20076;-83
2021/11/13 11:27:17;;;;;;;3.55;2.30;;;;;;;12.78;62.28;99874.44;5050348;28;20048;-80
2021/11/13 11:29:49;;;;;;;3.75;2.65;;;;;;;12.67;62.37;99881.63;5052816;28;20049;-80
2021/11/13 11:32:20;;;;;;;2.97;2.53;;;;;;;12.57;62.82;99880.84;5053124;28;20056;-81
2021/11/13 11:34:50;;;;;;;3.22;2.65;;;;;;;12.55;62.75;99874.78;5052824;28;20056;-80
2021/11/13 11:37:21;;;;;;;2.95;2.47;;;;;;;12.54;62.82;99881.56;5051594;28;20053;-80
2021/11/13 11:39:51;;;;;;;3.70;2.60;;;;;;;12.43;63.21;99880.34;5052904;28;20060;-81
2021/11/13 11:42:19;;;;;;;3.55;2.80;;;;;;;12.54;63.77;99875.97;5052644;28;20060;-81